createdAt,value
2023-02-03T00:01:46.550Z,7.798033810618729
2023-02-03T00:08:08.057Z,7.76827837583612
2023-02-03T00:14:29.148Z,7.794708272366221
2023-02-03T00:20:50.597Z,7.821197611831104
2023-02-03T00:27:11.360Z,7.874821671195652
2023-02-03T00:33:42.085Z,7.868432535535116
2023-02-03T00:40:03.385Z,7.845986622073578
2023-02-03T00:46:24.669Z,7.807892845944817
2023-02-03T00:56:51.862Z,7.779293608904682
2023-02-03T01:03:13.073Z,7.765479985367892
2023-02-03T01:09:34.732Z,7.8026723191889635
2023-02-03T01:15:56.282Z,7.835523359113713
2023-02-03T01:22:18.347Z,7.852117736204013
2023-02-03T01:34:54.951Z,7.864764057274248
2023-02-03T01:47:19.141Z,7.908401050376255
2023-02-03T01:53:40.026Z,7.857998667433113
2023-02-03T02:00:01.614Z,7.887010738921404
2023-02-03T02:07:29.833Z,7.891219429347826
2023-02-03T02:16:33.657Z,7.869819319607023
2023-02-03T02:23:28.795Z,7.914466842600335
2023-02-03T02:29:50.058Z,7.908229906981606
2023-02-03T02:36:12.203Z,7.94285639632107
2023-02-03T02:42:33.700Z,7.93573304243311
2023-02-03T02:48:55.349Z,7.899522496864549
2023-02-03T02:55:16.673Z,7.919593305811035
2023-02-03T03:01:38.226Z,7.936880748327759
2023-02-03T03:07:59.281Z,8.006147444607024
2023-02-03T03:18:53.518Z,8.00549422554348
2023-02-03T03:29:54.742Z,8.032856265677257
2023-02-03T03:42:21.780Z,8.029904368729097
2023-02-03T03:54:20.581Z,8.063775083612041
2023-02-03T04:06:32.567Z,8.081835937500001
2023-02-03T04:12:54.237Z,8.077224864130432
2023-02-03T04:19:17.026Z,8.024186742265886
2023-02-03T04:25:38.583Z,8.011848087374583
2023-02-03T04:32:59.948Z,7.997611177884617
2023-02-03T04:44:06.445Z,7.915020119147158
2023-02-03T04:50:28.030Z,7.904391591764214
2023-02-03T04:56:59.948Z,7.86923991429766
2023-02-03T05:03:21.497Z,7.840780466137125
2023-02-03T05:11:51.758Z,7.921021895903009
2023-02-03T05:23:38.848Z,8.04381793478261
2023-02-03T05:29:59.458Z,8.03779656145485
2023-02-03T05:36:20.770Z,8.077587400710701
2023-02-03T05:42:41.522Z,8.030299566262542
2023-02-03T05:53:22.092Z,7.96332174958194
2023-02-03T05:59:42.680Z,7.919073343436455
2023-02-03T06:06:04.222Z,7.93657308214883
2023-02-03T06:12:26.463Z,7.915289898620401
2023-02-03T06:18:49.313Z,7.892092130016722
2023-02-03T06:25:27.679Z,7.756409385451505
2023-02-03T06:31:49.772Z,7.6878991168478255
2023-02-03T06:43:18.827Z,7.693145772366219
2023-02-03T06:53:38.533Z,7.832143603678929
2023-02-03T07:00:01.609Z,7.898800689799332
2023-02-03T07:09:58.548Z,8.017442908653846
2023-02-03T07:16:23.570Z,8.135694502508361
2023-02-03T07:25:08.328Z,8.268424696906354
2023-02-03T07:31:31.434Z,8.318198683110367
2023-02-03T07:42:28.716Z,8.401343671613711
2023-02-03T08:02:05.700Z,8.494254285117059
2023-02-03T08:08:27.823Z,8.533292616011705
2023-02-03T08:20:37.976Z,8.651290107650503
2023-02-03T08:26:59.481Z,8.740423155309363
2023-02-03T08:33:21.505Z,8.77171822742475
2023-02-03T08:39:44.894Z,8.807603469899664
2023-02-03T08:46:09.735Z,8.805442621237459
2023-02-03T08:52:34.242Z,8.87681137646321
2023-02-03T08:58:57.597Z,8.887124399038463
2023-02-03T09:07:32.938Z,8.880294993729098
2023-02-03T09:17:50.164Z,8.444681490384614
2023-02-03T09:24:14.504Z,8.217794340510034
2023-02-03T09:30:39.155Z,8.090808554556856
2023-02-03T09:37:02.869Z,8.006210153637124
2023-02-03T09:43:27.146Z,8.074255330267558
2023-02-03T09:49:51.551Z,8.162766513377926
2023-02-03T09:56:16.350Z,8.281836590719063
2023-02-03T10:05:39.148Z,8.44382185409699
2023-02-03T10:12:03.628Z,8.569878109322742
2023-02-03T10:18:27.795Z,8.667427884615385
2023-02-03T10:24:52.142Z,8.80785299958194
2023-02-03T10:31:16.806Z,8.931143525292642
2023-02-03T10:37:40.951Z,9.143469115802677
2023-02-03T10:46:43.442Z,9.735807509406355
2023-02-03T10:58:04.278Z,10.087505878971573
2023-02-03T11:04:28.369Z,9.922635346989965
2023-02-03T11:10:51.821Z,9.876209761705685
2023-02-03T11:17:32.432Z,9.8429615645903
2023-02-03T11:33:47.658Z,9.858657765468227
2023-02-03T11:40:12.369Z,9.533487275292643
2023-02-03T11:46:37.094Z,9.357536841555184
2023-02-03T11:53:00.673Z,9.26591241638796
2023-02-03T12:00:13.117Z,9.112838367474918
2023-02-03T12:06:37.048Z,9.22806816994147
2023-02-03T12:13:01.120Z,9.343868885869565
2023-02-03T12:19:25.703Z,9.371654865175584
2023-02-03T12:25:49.683Z,9.453901024247491
2023-02-03T12:32:14.397Z,9.448669392767558
2023-02-03T12:41:09.414Z,9.378514971780936
2023-02-03T12:49:22.967Z,9.433810618729096
2023-02-03T12:55:47.143Z,9.290681830058528
2023-02-03T13:03:10.904Z,9.296012097617059
2023-02-03T13:11:10.088Z,9.17301748014214
2023-02-03T13:23:13.401Z,9.154962505225752
2023-02-03T13:29:37.630Z,9.024269047867891
2023-02-03T13:37:17.853Z,8.902337871028429
2023-02-03T13:43:40.991Z,8.88854319084448
2023-02-03T13:50:04.695Z,8.83707083507525
2023-02-03T13:56:29.331Z,8.78473231082776
2023-02-03T14:02:53.321Z,8.747495558110367
2023-02-03T14:09:17.630Z,8.666616586538462
2023-02-03T14:17:41.115Z,8.587012698578596
2023-02-03T14:25:11.946Z,8.527412991220736
2023-02-03T14:31:35.218Z,8.516913801212374
2023-02-03T14:40:52.471Z,8.36086564590301
2023-02-03T14:47:15.692Z,8.3233676055602
2023-02-03T14:53:39.856Z,8.256354515050166
2023-02-03T15:00:03.640Z,8.230178720735784
2023-02-03T15:06:28.000Z,8.218246368102006
2023-02-03T15:18:10.164Z,8.141073108277592
2023-02-03T15:24:33.263Z,8.125434390677258
2023-02-03T15:30:57.313Z,8.117805445234115
2023-02-03T15:37:20.681Z,8.097767950459867
2023-02-03T15:43:43.789Z,8.027437160326086
2023-02-03T15:50:07.465Z,7.968080450459866
2023-02-03T15:56:31.353Z,7.887483669523412
2023-02-03T16:02:53.915Z,7.835452811454848
2023-02-03T16:09:14.560Z,7.793683371655518
2023-02-03T16:15:35.850Z,7.726838811663878
2023-02-03T16:26:42.025Z,7.686455502717392
2023-02-03T16:33:02.519Z,7.651867553302676
2023-02-03T16:43:26.881Z,7.585898306856187
2023-02-03T16:49:47.867Z,7.6134536998327755
2023-02-03T16:56:08.545Z,7.61912037520903
2023-02-03T17:10:05.917Z,7.585949911162206
2023-02-03T17:16:27.332Z,7.594814093854515
2023-02-03T17:22:48.756Z,7.543459970735787
2023-02-03T17:33:39.000Z,7.522168948578596
2023-02-03T17:59:37.435Z,7.289872491638796
2023-02-03T18:05:59.180Z,7.0786919941471576
2023-02-03T18:12:20.100Z,7.023542668269231
2023-02-03T18:19:55.820Z,7.013811663879598
2023-02-03T18:26:17.218Z,7.0002965614548485
2023-02-03T18:37:12.769Z,7.0276030779682275
2023-02-03T18:43:34.534Z,7.0427277121655525
2023-02-03T18:49:55.831Z,7.008379494147156
2023-02-03T18:56:17.573Z,6.998024012332776
2023-02-03T19:02:42.247Z,6.977320887332777
2023-02-03T19:09:05.481Z,6.943373092600335
2023-02-03T19:15:28.715Z,6.946752194816054
2023-02-03T19:21:51.241Z,6.975393891095318
2023-02-03T19:33:50.816Z,7.0320567255434785
2023-02-03T19:40:16.749Z,7.031176839464883
2023-02-03T19:46:42.752Z,7.062662651546824
2023-02-03T19:53:05.858Z,7.151030779682274
2023-02-03T19:59:29.786Z,7.227032817725752
2023-02-03T20:05:55.375Z,7.146134249581939
2023-02-03T20:12:19.007Z,7.116827576295986
2023-02-03T20:18:40.566Z,7.224349393812711
2023-02-03T20:25:03.327Z,7.242468384197324
2023-02-03T20:31:25.841Z,7.164244094899664
2023-02-03T20:37:49.124Z,7.135334578804349
2023-02-03T20:45:20.949Z,7.136728548285953
2023-02-03T20:51:44.888Z,7.156039010242474
2023-02-03T20:58:06.456Z,7.176755852842808
2023-02-03T21:04:28.243Z,7.103724655100335
2023-02-03T21:10:49.848Z,7.136486857232441
2023-02-03T21:17:12.820Z,7.135565165133778
2023-02-03T21:28:44.463Z,7.157813153219062
2023-02-03T21:41:04.849Z,7.111884667642141
2023-02-03T21:47:28.145Z,7.082650501672241
2023-02-03T21:53:54.573Z,7.07424095944816
2023-02-03T22:00:22.935Z,7.1022033079013385
2023-02-03T22:09:31.794Z,7.035205241429765
2023-02-03T22:15:55.464Z,7.076226745401337
2023-02-03T22:22:19.614Z,6.9776403114548495
2023-02-03T22:28:45.479Z,6.7279381793478255
2023-02-03T22:35:12.120Z,6.626874738712374
2023-02-03T22:47:31.339Z,6.442081678511706
2023-02-03T22:53:58.121Z,6.406962661998327
2023-02-03T23:00:27.405Z,6.30294993729097
2023-02-03T23:06:52.231Z,6.139210127508361
2023-02-03T23:13:18.086Z,6.009646739130435
2023-02-03T23:19:42.946Z,5.87806425062709
2023-02-03T23:26:04.193Z,5.779059103260869
2023-02-03T23:32:25.935Z,5.69894243833612
2023-02-03T23:38:47.715Z,5.699172371446489
2023-02-03T23:45:09.149Z,5.720660665760869
2023-02-03T23:52:23.556Z,5.773500209030099
